Latest Weather Observations for Wattamolla

IDN60901

Issued at 2:51 pm EDT Thursday 13 December 2018 (issued every 10 minutes, with the page automatically refreshed every 10 minutes)

About weather observations | Map of Sydney area stations | Latest observations for Sydney area | Other Formats
Station Details ID: 066208 Name: WATTAMOLLA AWS Lat: -34.14 Lon: 151.12 Height: 44.0 m
Data from the previous 72 hours. | See also: Recent months for locations in New South Wales
Date/Time
EDT
Temp
°C
App
Temp
°C
Dew
Point
°C
Rel
Hum
%
Delta-T
°C
Wind Press
QNH
hPa
Press
MSL
hPa
Rain since
9am
mm
Dir  Spd
km/h
Gust
km/h
Spd
kts
Gust
kts
13/02:30pm - - - - - NE 28 39 15 21 - - -
13/02:00pm - - - - - NNE 24 33 13 18 - - -
13/01:30pm - - - - - NNE 20 33 11 18 - - -
13/01:00pm - - - - - NE 20 35 11 19 - - -
13/12:30pm - - - - - NNE 19 26 10 14 - - -
13/12:00pm - - - - - NE 19 26 10 14 - - -
13/11:30am - - - - - NE 17 22 9 12 - - -
13/11:00am - - - - - NE 13 19 7 10 - - -
13/10:30am - - - - - ENE 9 15 5 8 - - -
13/10:00am - - - - - ENE 9 13 5 7 - - -
13/09:30am - - - - - ESE 2 7 1 4 - - -
13/09:00am - - - - - E 7 9 4 5 - - -
13/08:30am - - - - - NNE 9 13 5 7 - - -
13/08:00am - - - - - ENE 6 9 3 5 - - -
13/07:30am - - - - - NNE 9 11 5 6 - - -
13/07:00am - - - - - NNE 9 11 5 6 - - -
13/06:30am - - - - - N 11 15 6 8 - - -
13/06:00am - - - - - N 15 22 8 12 - - -
13/05:30am - - - - - NE 22 30 12 16 - - -
13/05:00am - - - - - NNE 15 22 8 12 - - -
13/04:30am - - - - - NNE 15 19 8 10 - - -
13/04:00am - - - - - N 15 19 8 10 - - -
13/03:30am - - - - - N 13 17 7 9 - - -
13/03:00am - - - - - N 17 24 9 13 - - -
13/02:30am - - - - - N 15 20 8 11 - - -
13/02:00am - - - - - N 17 26 9 14 - - -
13/01:30am - - - - - N 20 30 11 16 - - -
13/01:00am - - - - - NNE 20 30 11 16 - - -
13/12:30am - - - - - NNE 19 30 10 16 - - -
13/12:00am - - - - - NNE 19 28 10 15 - - -
 
Date/Time
EDT
Temp
°C
App
Temp
°C
Dew
Point
°C
Rel
Hum
%
Delta-T
°C
Wind Press
QNH
hPa
Press
MSL
hPa
Rain since
9am
mm
Dir  Spd
km/h
Gust
km/h
Spd
kts
Gust
kts
12/11:30pm - - - - - NNE 20 30 11 16 - - -
12/11:00pm - - - - - NNE 20 33 11 18 - - -
12/10:30pm - - - - - NNE 26 37 14 20 - - -
12/10:00pm - - - - - NNE 20 30 11 16 - - -
12/09:30pm - - - - - NNE 17 28 9 15 - - -
12/09:00pm - - - - - NNE 17 26 9 14 - - -
12/08:30pm - - - - - NNE 15 20 8 11 - - -
12/08:00pm - - - - - NNE 15 20 8 11 - - -
12/07:30pm - - - - - NNE 11 17 6 9 - - -
12/07:00pm - - - - - NNE 17 22 9 12 - - -
12/06:30pm - - - - - NNE 17 28 9 15 - - -
12/06:00pm - - - - - NNE 20 30 11 16 - - -
12/05:30pm - - - - - NNE 17 28 9 15 - - -
12/05:00pm - - - - - NNE 20 32 11 17 - - -
12/04:30pm - - - - - NE 20 30 11 16 - - -
12/04:00pm - - - - - NE 19 26 10 14 - - -
12/03:30pm - - - - - NE 19 28 10 15 - - -
12/03:00pm - - - - - NE 15 26 8 14 - - -
12/02:30pm - - - - - NE 17 22 9 12 - - -
12/02:00pm - - - - - ENE 13 17 7 9 - - -
12/01:30pm - - - - - NE 13 17 7 9 - - -
12/01:00pm - - - - - NE 13 22 7 12 - - -
12/12:30pm - - - - - NNE 13 20 7 11 - - -
12/12:00pm - - - - - NNE 13 20 7 11 - - -
12/11:30am - - - - - N 17 24 9 13 - - -
12/11:00am - - - - - NNE 17 26 9 14 - - -
12/10:30am - - - - - S 7 11 4 6 - - -
12/10:00am - - - - - S 11 15 6 8 - - -
12/09:30am - - - - - S 11 15 6 8 - - -
12/09:00am - - - - - SW 9 13 5 7 - - -
12/08:30am - - - - - S 13 17 7 9 - - -
12/08:00am - - - - - S 11 15 6 8 - - -
12/07:30am - - - - - S 11 13 6 7 - - -
12/07:00am - - - - - S 7 11 4 6 - - -
12/06:30am - - - - - NW 6 7 3 4 - - -
12/06:00am - - - - - SW 9 11 5 6 - - -
12/05:30am - - - - - SW 9 11 5 6 - - -
12/05:00am - - - - - SSW 9 11 5 6 - - -
12/04:30am - - - - - SW 9 9 5 5 - - -
12/04:00am - - - - - SW 9 9 5 5 - - -
12/03:30am - - - - - SW 9 9 5 5 - - -
12/03:00am - - - - - SW 7 9 4 5 - - -
12/02:30am - - - - - WSW 9 9 5 5 - - -
12/02:00am - - - - - W 6 7 3 4 - - -
12/01:30am - - - - - WSW 6 9 3 5 - - -
12/01:00am - - - - - SSW 7 9 4 5 - - -
12/12:30am - - - - - SSW 6 7 3 4 - - -
12/12:00am - - - - - CALM 0 6 0 3 - - -
 
Date/Time
EDT
Temp
°C
App
Temp
°C
Dew
Point
°C
Rel
Hum
%
Delta-T
°C
Wind Press
QNH
hPa
Press
MSL
hPa
Rain since
9am
mm
Dir  Spd
km/h
Gust
km/h
Spd
kts
Gust
kts
11/11:30pm - - - - - NW 7 9 4 5 - - -
11/11:00pm - - - - - SW 4 7 2 4 - - -
11/10:30pm - - - - - SE 7 9 4 5 - - -
11/10:00pm - - - - - SSE 11 11 6 6 - - -
11/09:30pm - - - - - SSE 13 13 7 7 - - -
11/09:00pm - - - - - SSE 13 15 7 8 - - -
11/08:30pm - - - - - S 15 19 8 10 - - -
11/08:00pm - - - - - S 15 19 8 10 - - -
11/07:30pm - - - - - S 11 13 6 7 - - -
11/07:00pm - - - - - SSE 11 15 6 8 - - -
11/06:30pm - - - - - SE 11 13 6 7 - - -
11/06:00pm - - - - - SSE 11 13 6 7 - - -
11/05:30pm - - - - - SSE 13 15 7 8 - - -
11/05:00pm - - - - - SSE 13 13 7 7 - - -
11/04:30pm - - - - - SSE 11 13 6 7 - - -
11/04:00pm - - - - - SSE 13 15 7 8 - - -
11/03:30pm - - - - - SSE 13 15 7 8 - - -
11/03:00pm - - - - - SSE 13 17 7 9 - - -
11/02:30pm - - - - - SSE 13 15 7 8 - - -
11/02:00pm - - - - - SSE 17 19 9 10 - - -
11/01:30pm - - - - - SSE 13 15 7 8 - - -
11/01:00pm - - - - - S 15 17 8 9 - - -
11/12:30pm - - - - - SSE 17 20 9 11 - - -
11/12:00pm - - - - - SSE 19 20 10 11 - - -
11/11:30am - - - - - SSE 17 20 9 11 - - -
11/11:00am - - - - - SSE 17 17 9 9 - - -
11/10:30am - - - - - SSE 17 19 9 10 - - -
11/10:00am - - - - - SSE 17 19 9 10 - - -
11/09:30am - - - - - SSE 17 19 9 10 - - -
11/09:00am - - - - - SSE 20 24 11 13 - - -
11/08:30am - - - - - SSE 24 26 13 14 - - -
11/08:00am - - - - - SSE 20 24 11 13 - - -
11/07:30am - - - - - SSE 24 28 13 15 - - -
11/07:00am - - - - - SSE 24 30 13 16 - - -
11/06:30am - - - - - SSE 28 32 15 17 - - -
11/06:00am - - - - - SSE 28 32 15 17 - - -
11/05:30am - - - - - SSE 28 33 15 18 - - -
11/05:00am - - - - - SSE 30 37 16 20 - - -
11/04:30am - - - - - SSE 35 43 19 23 - - -
11/04:00am - - - - - SSE 28 32 15 17 - - -
11/03:30am - - - - - SSE 28 33 15 18 - - -
11/03:00am - - - - - SSE 32 35 17 19 - - -
11/02:30am - - - - - SSE 26 32 14 17 - - -
11/02:00am - - - - - SSE 24 30 13 16 - - -
11/01:30am - - - - - SSE 24 32 13 17 - - -
11/01:00am - - - - - SSE 30 35 16 19 - - -
11/12:30am - - - - - SSE 28 33 15 18 - - -
11/12:00am - - - - - S 33 39 18 21 - - -
 
Date/Time
EDT
Temp
°C
App
Temp
°C
Dew
Point
°C
Rel
Hum
%
Delta-T
°C
Wind Press
QNH
hPa
Press
MSL
hPa
Rain since
9am
mm
Dir  Spd
km/h
Gust
km/h
Spd
kts
Gust
kts
10/11:30pm - - - - - S 32 33 17 18 - - -
10/11:00pm - - - - - SSE 30 35 16 19 - - -
10/10:30pm - - - - - S 39 46 21 25 - - -
10/10:00pm - - - - - S 37 41 20 22 - - -
10/09:30pm - - - - - S 33 37 18 20 - - -
10/09:00pm - - - - - S 35 39 19 21 - - -
10/08:30pm - - - - - S 33 39 18 21 - - -
10/08:00pm - - - - - S 48 57 26 31 - - -
10/07:30pm - - - - - S 39 50 21 27 - - -
10/07:00pm - - - - - SSE 37 48 20 26 - - -
10/06:30pm - - - - - SSE 33 44 18 24 - - -
10/06:00pm - - - - - S 26 35 14 19 - - -
10/05:30pm - - - - - S 22 35 12 19 - - -
10/05:00pm - - - - - S 17 32 9 17 - - -
10/04:30pm - - - - - SSW 6 9 3 5 - - -
10/04:00pm - - - - - ENE 9 13 5 7 - - -
10/03:30pm - - - - - ENE 9 13 5 7 - - -
10/03:00pm - - - - - NNW 13 17 7 9 - - -

Latest Capital City Observations: Canberra | Sydney | Melbourne | Brisbane | Adelaide | Perth | Hobart | Darwin

Other Formats:

Comma delimited format used in spreadsheet applications
http://www.bom.gov.au/fwo/IDN60901/IDN60901.95752.axf

JavaScript Object Notation format (JSON) in row-major order
http://www.bom.gov.au/fwo/IDN60901/IDN60901.95752.json